createdAt,value
2022-08-02T00:00:35.131Z,101695.13
2022-08-02T00:03:02.967Z,101699.66
2022-08-02T00:05:32.187Z,101706.94
2022-08-02T00:08:00.039Z,101701.59
2022-08-02T00:10:28.064Z,101698.03
2022-08-02T00:12:55.944Z,101697.13
2022-08-02T00:15:23.828Z,101699.81
2022-08-02T00:17:51.636Z,101688.25
2022-08-02T00:20:19.865Z,101692.78
2022-08-02T00:22:49.092Z,101688.38
2022-08-02T00:25:16.889Z,101683.88
2022-08-02T00:27:44.693Z,101685.66
2022-08-02T00:30:13.346Z,101681.22
2022-08-02T00:32:41.106Z,101682.09
2022-08-02T00:35:09.975Z,101683.00
2022-08-02T00:37:40.440Z,101689.41
2022-08-02T00:40:11.700Z,101691.16
2022-08-02T00:42:40.101Z,101689.47
2022-08-02T00:45:08.859Z,101694.91
2022-08-02T00:47:36.654Z,101691.38
2022-08-02T00:50:05.157Z,101684.16
2022-08-02T00:52:33.063Z,101697.69
2022-08-02T00:55:00.890Z,101692.38
2022-08-02T00:57:30.117Z,101696.94
2022-08-02T00:59:57.942Z,101694.34
2022-08-02T01:02:25.775Z,101693.44
2022-08-02T01:04:53.612Z,101691.63
2022-08-02T01:07:21.773Z,101691.63
2022-08-02T01:09:49.566Z,101694.31
2022-08-02T01:12:17.736Z,101681.75
2022-08-02T01:14:49.569Z,101679.06
2022-08-02T01:17:21.525Z,101684.47
2022-08-02T01:19:56.623Z,101679.13
2022-08-02T01:23:03.041Z,101685.53
2022-08-02T01:25:51.610Z,101686.47
2022-08-02T01:28:39.981Z,101678.47
2022-08-02T01:31:15.672Z,101667.66
2022-08-02T01:33:48.722Z,101670.41
2022-08-02T01:36:19.962Z,101672.19
2022-08-02T01:38:50.653Z,101665.06
2022-08-02T01:41:20.864Z,101667.78
2022-08-02T01:43:54.919Z,101663.31
2022-08-02T01:46:24.236Z,101657.97
2022-08-02T01:48:54.562Z,101658.91
2022-08-02T01:51:44.073Z,101655.41
2022-08-02T01:54:18.702Z,101663.66
2022-08-02T01:56:49.013Z,101661.03
2022-08-02T01:59:22.856Z,101652.06
2022-08-02T02:01:55.207Z,101658.41
2022-08-02T02:04:23.631Z,101656.69
2022-08-02T02:06:52.563Z,101658.59
2022-08-02T02:09:22.500Z,101657.88
2022-08-02T02:12:06.353Z,101659.72
2022-08-02T02:14:51.734Z,101650.88
2022-08-02T02:17:50.689Z,101656.31
2022-08-02T02:20:14.212Z,101664.41
2022-08-02T02:22:42.141Z,101652.75
2022-08-02T02:25:11.611Z,101652.78
2022-08-02T02:27:44.266Z,101662.72
2022-08-02T02:30:14.669Z,101652.88
2022-08-02T02:32:45.336Z,101655.63
2022-08-02T02:35:17.653Z,101645.75
2022-08-02T02:37:49.105Z,101639.53
2022-08-02T02:40:19.169Z,101638.63
2022-08-02T02:42:49.480Z,101619.81
2022-08-02T02:45:21.526Z,101618.06
2022-08-02T02:47:50.893Z,101625.22
2022-08-02T02:50:20.027Z,101615.41
2022-08-02T02:52:49.351Z,101620.00
2022-08-02T02:55:19.050Z,101620.03
2022-08-02T02:57:47.673Z,101612.88
2022-08-02T03:00:16.481Z,101619.19
2022-08-02T03:02:46.974Z,101614.78
2022-08-02T03:05:15.850Z,101617.63
2022-08-02T03:07:43.706Z,101619.53
2022-08-02T03:10:12.248Z,101609.66
2022-08-02T03:12:40.302Z,101618.66
2022-08-02T03:15:11.478Z,101618.78
2022-08-02T03:17:43.609Z,101620.56
2022-08-02T03:20:15.412Z,101625.00
2022-08-02T03:22:43.743Z,101618.84
2022-08-02T03:25:12.412Z,101617.91
2022-08-02T03:27:40.578Z,101610.72
2022-08-02T03:30:10.308Z,101608.06
2022-08-02T03:32:40.057Z,101601.75
2022-08-02T03:35:10.441Z,101592.78
2022-08-02T03:37:41.472Z,101598.19
2022-08-02T03:40:14.217Z,101601.84
2022-08-02T03:42:42.899Z,101602.78
2022-08-02T03:45:13.356Z,101604.59
2022-08-02T03:47:41.974Z,101608.19
2022-08-02T03:50:13.315Z,101612.72
2022-08-02T03:52:45.253Z,101606.44
2022-08-02T03:55:14.382Z,101609.97
2022-08-02T03:57:43.738Z,101610.84
2022-08-02T04:00:14.203Z,101598.28
2022-08-02T04:02:41.966Z,101597.34
2022-08-02T04:05:10.038Z,101599.19
2022-08-02T04:08:32.598Z,101601.88
2022-08-02T04:10:27.198Z,101601.84
2022-08-02T04:12:55.624Z,101607.19
2022-08-02T04:15:25.046Z,101605.34
2022-08-02T04:17:57.605Z,101613.38
2022-08-02T04:20:28.968Z,101613.31
2022-08-02T04:23:07.636Z,101617.81
2022-08-02T04:25:40.165Z,101622.25
2022-08-02T04:28:17.511Z,101619.53
2022-08-02T04:30:47.408Z,101616.78
2022-08-02T04:33:15.772Z,101621.22
2022-08-02T04:35:43.832Z,101618.53
2022-08-02T04:38:13.497Z,101617.53
2022-08-02T04:40:50.844Z,101615.59
2022-08-02T04:43:20.031Z,101620.94
2022-08-02T04:45:49.503Z,101621.81
2022-08-02T04:48:17.373Z,101623.50
2022-08-02T04:50:45.280Z,101625.22
2022-08-02T04:53:13.184Z,101626.06
2022-08-02T04:55:42.314Z,101633.25
2022-08-02T04:58:38.277Z,101628.75
2022-08-02T05:00:58.128Z,101627.84
2022-08-02T05:03:25.934Z,101625.00
2022-08-02T05:05:53.751Z,101616.75
2022-08-02T05:08:21.543Z,101614.72
2022-08-02T05:10:50.725Z,101619.00
2022-08-02T05:13:18.487Z,101619.81
2022-08-02T05:15:49.107Z,101615.16
2022-08-02T05:18:17.010Z,101625.63
2022-08-02T05:20:47.409Z,101622.41
2022-08-02T05:23:15.261Z,101615.53
2022-08-02T05:25:43.015Z,101621.28
2022-08-02T05:28:12.308Z,101619.97
2022-08-02T05:30:40.454Z,101623.25
2022-08-02T05:33:08.750Z,101619.34
2022-08-02T05:35:36.695Z,101611.91
2022-08-02T05:38:04.655Z,101610.75
2022-08-02T05:40:54.490Z,101606.00
2022-08-02T05:43:24.359Z,101606.75
2022-08-02T05:45:53.616Z,101613.84
2022-08-02T05:48:22.160Z,101596.56
2022-08-02T05:50:55.810Z,101607.09
2022-08-02T05:53:36.386Z,101603.31
2022-08-02T05:56:14.211Z,101602.19
2022-08-02T05:58:51.197Z,101601.81
2022-08-02T06:01:28.691Z,101604.25
2022-08-02T06:03:58.946Z,101598.53
2022-08-02T06:06:27.640Z,101598.19
2022-08-02T06:09:00.544Z,101591.50
2022-08-02T06:11:36.687Z,101588.53
2022-08-02T06:14:07.343Z,101597.44
2022-08-02T06:16:36.857Z,101596.19
2022-08-02T06:19:10.869Z,101589.50
2022-08-02T06:22:31.191Z,101590.13
2022-08-02T06:24:31.587Z,101589.00
2022-08-02T06:27:00.730Z,101595.06
2022-08-02T06:29:38.347Z,101586.47
2022-08-02T06:32:08.991Z,101594.22
2022-08-02T06:34:38.483Z,101594.81
2022-08-02T06:37:14.145Z,101602.66
2022-08-02T06:39:48.746Z,101597.97
2022-08-02T06:42:26.944Z,101606.91
2022-08-02T06:44:58.064Z,101603.91
2022-08-02T06:47:26.448Z,101594.59
2022-08-02T06:49:55.064Z,101589.72
2022-08-02T06:52:29.236Z,101584.06
2022-08-02T06:54:58.326Z,101596.28
2022-08-02T06:57:26.428Z,101595.78
2022-08-02T06:59:54.316Z,101590.69
2022-08-02T07:02:23.674Z,101586.47
2022-08-02T07:04:52.083Z,101587.03
2022-08-02T07:07:20.086Z,101584.19
2022-08-02T07:10:00.708Z,101571.22
2022-08-02T07:12:31.070Z,101582.84
2022-08-02T07:14:59.378Z,101580.06
2022-08-02T07:17:28.755Z,101583.53
2022-08-02T07:19:56.741Z,101594.94
2022-08-02T07:22:26.889Z,101580.03
2022-08-02T07:24:55.809Z,101582.13
2022-08-02T07:27:24.012Z,101586.00
2022-08-02T07:29:52.217Z,101584.47
2022-08-02T07:32:22.559Z,101588.81
2022-08-02T07:34:53.027Z,101578.75
2022-08-02T07:37:36.081Z,101578.75
2022-08-02T07:40:14.639Z,101581.25
2022-08-02T07:42:43.449Z,101588.34
2022-08-02T07:45:12.694Z,101575.53
2022-08-02T07:47:41.286Z,101573.63
2022-08-02T07:50:12.184Z,101562.28
2022-08-02T07:52:40.805Z,101558.56
2022-08-02T07:55:09.901Z,101554.56
2022-08-02T07:57:41.239Z,101557.81
2022-08-02T08:00:12.864Z,101563.75
2022-08-02T08:02:40.860Z,101567.00
2022-08-02T08:05:10.846Z,101554.81
2022-08-02T08:07:39.008Z,101549.88
2022-08-02T08:10:08.375Z,101556.47
2022-08-02T08:12:36.453Z,101548.63
2022-08-02T08:15:04.621Z,101556.44
2022-08-02T08:17:32.632Z,101550.50
2022-08-02T08:20:00.505Z,101551.19
2022-08-02T08:22:29.644Z,101549.00
2022-08-02T08:24:57.658Z,101545.88
2022-08-02T08:27:25.804Z,101539.88
2022-08-02T08:29:53.630Z,101547.19
2022-08-02T08:32:21.827Z,101541.25
2022-08-02T08:34:51.265Z,101544.75
2022-08-02T08:37:19.386Z,101548.34
2022-08-02T08:39:56.586Z,101539.38
2022-08-02T08:42:26.837Z,101547.31
2022-08-02T08:44:56.012Z,101545.06
2022-08-02T08:47:25.069Z,101548.19
2022-08-02T08:49:56.001Z,101540.44
2022-08-02T08:52:27.816Z,101537.38
2022-08-02T08:54:59.255Z,101542.75
2022-08-02T08:57:30.666Z,101538.84
2022-08-02T08:59:58.533Z,101538.56
2022-08-02T09:02:28.506Z,101531.00
2022-08-02T09:04:56.873Z,101533.56
2022-08-02T09:07:24.832Z,101523.31
2022-08-02T09:09:52.644Z,101530.22
2022-08-02T09:12:24.946Z,101529.59
2022-08-02T09:14:52.999Z,101523.69
2022-08-02T09:17:22.012Z,101522.19
2022-08-02T09:20:08.190Z,101524.28
2022-08-02T09:22:35.943Z,101519.56
2022-08-02T09:25:03.728Z,101523.63
2022-08-02T09:27:38.075Z,101525.88
2022-08-02T09:30:14.347Z,101522.69
2022-08-02T09:32:47.828Z,101518.59
2022-08-02T09:36:07.022Z,101523.00
2022-08-02T09:38:19.881Z,101524.69
2022-08-02T09:40:47.733Z,101524.22
2022-08-02T09:43:17.483Z,101525.34
2022-08-02T09:45:47.016Z,101515.88
2022-08-02T09:48:14.734Z,101522.81
2022-08-02T09:50:42.897Z,101515.22
2022-08-02T09:53:13.915Z,101513.19
2022-08-02T09:55:42.522Z,101507.91
2022-08-02T09:58:22.200Z,101510.34
2022-08-02T10:00:54.627Z,101514.28
2022-08-02T10:03:22.989Z,101504.28
2022-08-02T10:06:02.107Z,101513.88
2022-08-02T10:08:33.040Z,101516.13
2022-08-02T10:11:02.482Z,101521.22
2022-08-02T10:13:35.540Z,101508.78
2022-08-02T10:16:04.755Z,101510.56
2022-08-02T10:18:41.113Z,101510.88
2022-08-02T10:21:14.458Z,101501.47
2022-08-02T10:23:44.829Z,101507.63
2022-08-02T10:26:17.209Z,101495.66
2022-08-02T10:28:49.451Z,101502.28
2022-08-02T10:31:21.812Z,101495.00
2022-08-02T10:33:52.921Z,101490.47
2022-08-02T10:36:23.596Z,101478.25
2022-08-02T10:38:51.835Z,101480.84
2022-08-02T10:41:45.334Z,101485.13
2022-08-02T10:44:27.135Z,101476.50
2022-08-02T10:47:22.234Z,101470.66
2022-08-02T10:49:51.638Z,101475.88
2022-08-02T10:52:19.781Z,101468.41
2022-08-02T10:54:53.197Z,101473.81
2022-08-02T10:57:26.093Z,101471.56
2022-08-02T10:59:57.518Z,101476.63
2022-08-02T11:02:37.957Z,101473.94
2022-08-02T11:05:15.563Z,101481.47
2022-08-02T11:07:47.622Z,101471.56
2022-08-02T11:10:36.630Z,101472.00
2022-08-02T11:13:09.274Z,101468.69
2022-08-02T11:16:01.300Z,101465.06
2022-08-02T11:19:08.286Z,101458.25
2022-08-02T11:21:36.919Z,101459.59
2022-08-02T11:24:27.442Z,101470.16
2022-08-02T11:26:55.735Z,101470.06
2022-08-02T11:29:32.382Z,101463.44
2022-08-02T11:32:09.606Z,101466.38
2022-08-02T11:34:40.095Z,101461.22
2022-08-02T11:37:07.963Z,101461.91
2022-08-02T11:39:35.773Z,101467.34
2022-08-02T11:42:03.590Z,101459.28
2022-08-02T11:44:40.356Z,101461.19
2022-08-02T11:47:09.619Z,101443.78
2022-08-02T11:49:43.569Z,101443.03
2022-08-02T11:52:12.117Z,101452.91
2022-08-02T11:54:43.349Z,101451.28
2022-08-02T11:57:18.510Z,101442.09
2022-08-02T11:59:49.356Z,101441.91
2022-08-02T12:02:19.279Z,101444.47
2022-08-02T12:04:54.616Z,101441.88
2022-08-02T12:07:34.836Z,101454.19
2022-08-02T12:10:07.580Z,101451.13
2022-08-02T12:12:35.599Z,101455.50
2022-08-02T12:15:03.393Z,101431.84
2022-08-02T12:18:07.553Z,101445.78
2022-08-02T12:20:39.257Z,101432.88
2022-08-02T12:23:07.039Z,101435.25
2022-08-02T12:25:35.480Z,101427.28
2022-08-02T12:28:18.412Z,101438.34
2022-08-02T12:30:53.986Z,101434.25
2022-08-02T12:33:24.335Z,101447.38
2022-08-02T12:35:52.531Z,101446.50
2022-08-02T12:38:20.393Z,101433.63
2022-08-02T12:40:48.772Z,101435.91
2022-08-02T12:43:21.843Z,101434.25
2022-08-02T12:45:51.542Z,101440.44
2022-08-02T12:48:37.474Z,101430.09
2022-08-02T12:51:23.733Z,101426.13
2022-08-02T12:53:58.905Z,101430.63
2022-08-02T12:56:29.426Z,101425.66
2022-08-02T12:58:57.771Z,101429.41
2022-08-02T13:01:27.902Z,101425.13
2022-08-02T13:04:12.273Z,101420.13
2022-08-02T13:06:44.793Z,101417.41
2022-08-02T13:09:13.743Z,101406.66
2022-08-02T13:11:43.005Z,101403.44
2022-08-02T13:14:12.435Z,101398.44
2022-08-02T13:16:40.892Z,101390.06
2022-08-02T13:19:10.109Z,101401.84
2022-08-02T13:22:02.831Z,101389.72
2022-08-02T13:24:41.023Z,101397.59
2022-08-02T13:27:20.816Z,101391.31
2022-08-02T13:29:49.838Z,101402.34
2022-08-02T13:32:17.975Z,101393.72
2022-08-02T13:34:47.309Z,101388.81
2022-08-02T13:37:16.073Z,101395.84
2022-08-02T13:40:00.022Z,101394.56
2022-08-02T13:42:32.241Z,101391.19
2022-08-02T13:45:00.029Z,101394.75
2022-08-02T13:47:36.661Z,101389.41
2022-08-02T13:50:17.446Z,101383.66
2022-08-02T13:52:45.381Z,101382.41
2022-08-02T13:55:13.151Z,101376.88
2022-08-02T13:57:41.405Z,101368.13
2022-08-02T14:00:11.202Z,101370.75
2022-08-02T14:02:40.585Z,101364.50
2022-08-02T14:05:09.371Z,101367.72
2022-08-02T14:07:39.019Z,101368.38
2022-08-02T14:10:07.852Z,101367.22
2022-08-02T14:12:35.643Z,101361.50
2022-08-02T14:15:03.496Z,101355.47
2022-08-02T14:17:31.311Z,101364.63
2022-08-02T14:19:59.215Z,101354.72
2022-08-02T14:22:28.718Z,101359.81
2022-08-02T14:24:57.895Z,101350.56
2022-08-02T14:27:39.329Z,101347.22
2022-08-02T14:30:08.639Z,101353.47
2022-08-02T14:32:36.482Z,101354.09
2022-08-02T14:35:04.545Z,101342.34
2022-08-02T14:37:32.800Z,101332.97
2022-08-02T14:40:02.031Z,101343.34
2022-08-02T14:42:29.856Z,101339.59
2022-08-02T14:44:57.730Z,101344.06
2022-08-02T14:47:25.634Z,101338.22
2022-08-02T14:49:53.617Z,101330.56
2022-08-02T14:52:21.471Z,101336.31
2022-08-02T14:54:49.466Z,101333.06
2022-08-02T14:57:18.789Z,101319.16
2022-08-02T14:59:47.282Z,101327.19
2022-08-02T15:02:15.515Z,101316.88
2022-08-02T15:04:44.104Z,101332.41
2022-08-02T15:07:12.951Z,101321.53
2022-08-02T15:09:40.818Z,101318.25
2022-08-02T15:12:09.699Z,101317.41
2022-08-02T15:14:39.399Z,101315.91
2022-08-02T15:17:07.781Z,101315.50
2022-08-02T15:20:00.127Z,101314.66
2022-08-02T15:22:23.756Z,101304.88
2022-08-02T15:24:51.981Z,101310.00
2022-08-02T15:27:19.791Z,101316.75
2022-08-02T15:29:48.974Z,101317.41
2022-08-02T15:32:18.835Z,101301.25
2022-08-02T15:34:48.884Z,101303.63
2022-08-02T15:37:16.812Z,101304.88
2022-08-02T15:39:44.751Z,101305.63
2022-08-02T15:42:13.492Z,101299.50
2022-08-02T15:44:41.645Z,101302.38
2022-08-02T15:47:10.898Z,101308.28
2022-08-02T15:49:41.485Z,101296.75
2022-08-02T15:52:10.384Z,101290.13
2022-08-02T15:54:57.130Z,101294.13
2022-08-02T15:57:37.486Z,101294.00
2022-08-02T16:00:15.704Z,101293.34
2022-08-02T16:02:48.472Z,101300.00
2022-08-02T16:05:17.949Z,101292.00
2022-08-02T16:07:46.617Z,101292.88
2022-08-02T16:10:15.110Z,101289.59
2022-08-02T16:12:43.189Z,101298.13
2022-08-02T16:15:12.633Z,101288.34
2022-08-02T16:17:53.737Z,101291.09
2022-08-02T16:20:23.595Z,101288.59
2022-08-02T16:22:51.444Z,101287.22
2022-08-02T16:25:19.323Z,101287.22
2022-08-02T16:28:06.245Z,101280.34
2022-08-02T16:30:35.327Z,101274.97
2022-08-02T16:33:03.595Z,101274.25
2022-08-02T16:35:34.799Z,101274.34
2022-08-02T16:38:02.695Z,101265.72
2022-08-02T16:40:30.728Z,101264.09
2022-08-02T16:42:58.671Z,101259.56
2022-08-02T16:45:28.456Z,101253.94
2022-08-02T16:48:03.567Z,101252.22
2022-08-02T16:50:35.507Z,101252.09
2022-08-02T16:53:07.411Z,101248.31
2022-08-02T16:55:35.931Z,101241.09
2022-08-02T16:58:03.919Z,101237.44
2022-08-02T17:00:38.009Z,101243.19
2022-08-02T17:03:13.460Z,101238.31
2022-08-02T17:05:56.835Z,101245.69
2022-08-02T17:08:32.060Z,101244.16
2022-08-02T17:11:03.596Z,101238.28
2022-08-02T17:13:34.446Z,101242.00
2022-08-02T17:16:25.782Z,101240.25
2022-08-02T17:18:54.765Z,101236.75
2022-08-02T17:21:24.032Z,101238.66
2022-08-02T17:24:04.887Z,101242.38
2022-08-02T17:26:34.496Z,101241.53
2022-08-02T17:29:14.256Z,101242.63
2022-08-02T17:31:46.540Z,101246.63
2022-08-02T17:34:32.560Z,101236.84
2022-08-02T17:37:06.139Z,101243.34
2022-08-02T17:39:43.933Z,101247.25
2022-08-02T17:42:20.088Z,101244.09
2022-08-02T17:44:50.866Z,101244.59
2022-08-02T17:47:19.426Z,101241.91
2022-08-02T17:49:48.986Z,101248.81
2022-08-02T17:52:51.701Z,101245.28
2022-08-02T17:55:07.643Z,101245.53
2022-08-02T17:57:57.619Z,101253.13
2022-08-02T18:00:24.755Z,101244.34
2022-08-02T18:02:55.426Z,101249.31
2022-08-02T18:08:18.337Z,101243.50
2022-08-02T18:10:51.093Z,101246.50
2022-08-02T18:13:19.010Z,101247.66
2022-08-02T18:15:47.575Z,101247.22
2022-08-02T18:18:19.258Z,101240.94
2022-08-02T18:20:57.471Z,101255.94
2022-08-02T18:23:26.909Z,101246.06
2022-08-02T18:25:55.771Z,101251.66
2022-08-02T18:28:30.986Z,101255.63
2022-08-02T18:31:22.586Z,101249.50
2022-08-02T18:33:59.320Z,101251.72
2022-08-02T18:36:47.270Z,101246.56
2022-08-02T18:39:17.041Z,101254.16
2022-08-02T18:41:47.773Z,101261.72
2022-08-02T18:44:16.627Z,101252.94
2022-08-02T18:46:44.628Z,101252.28
2022-08-02T18:49:14.638Z,101252.75
2022-08-02T18:51:44.178Z,101253.84
2022-08-02T18:54:12.092Z,101251.44
2022-08-02T18:56:47.417Z,101249.06
2022-08-02T18:59:16.095Z,101258.50
2022-08-02T19:01:51.043Z,101256.09
2022-08-02T19:04:26.942Z,101264.53
2022-08-02T19:06:55.973Z,101259.50
2022-08-02T19:09:23.957Z,101261.72
2022-08-02T19:11:55.266Z,101268.41
2022-08-02T19:14:27.863Z,101262.47
2022-08-02T19:16:58.069Z,101270.06
2022-08-02T19:19:28.983Z,101263.13
2022-08-02T19:22:15.741Z,101270.03
2022-08-02T19:24:47.126Z,101261.34
2022-08-02T19:27:25.627Z,101265.50
2022-08-02T19:29:59.078Z,101271.44
2022-08-02T19:32:41.946Z,101273.72
2022-08-02T19:35:30.611Z,101270.63
2022-08-02T19:38:09.342Z,101266.66
2022-08-02T19:40:42.251Z,101270.06
2022-08-02T19:44:26.076Z,101277.56
2022-08-02T19:46:00.932Z,101273.59
2022-08-02T19:48:29.136Z,101278.50
2022-08-02T19:51:00.507Z,101282.53
2022-08-02T19:53:47.859Z,101276.59
2022-08-02T19:56:20.846Z,101276.88
2022-08-02T19:58:55.067Z,101279.94
2022-08-02T20:01:36.762Z,101280.38
2022-08-02T20:04:13.524Z,101283.41
2022-08-02T20:06:47.805Z,101276.50
2022-08-02T20:09:23.161Z,101285.97
2022-08-02T20:11:54.478Z,101281.00
2022-08-02T20:14:27.622Z,101284.00
2022-08-02T20:16:56.845Z,101290.75
2022-08-02T20:19:25.371Z,101282.75
2022-08-02T20:21:59.776Z,101289.50
2022-08-02T20:24:29.672Z,101293.41
2022-08-02T20:26:59.346Z,101290.97
2022-08-02T20:29:48.446Z,101290.38
2022-08-02T20:32:22.719Z,101298.03
2022-08-02T20:34:53.203Z,101301.06
2022-08-02T20:38:00.170Z,101294.03
2022-08-02T20:40:17.061Z,101296.16
2022-08-02T20:42:47.594Z,101291.94
2022-08-02T20:45:18.528Z,101289.50
2022-08-02T20:47:50.867Z,101304.34
2022-08-02T20:50:36.827Z,101297.38
2022-08-02T20:53:06.018Z,101296.69
2022-08-02T20:55:34.092Z,101302.31
2022-08-02T20:58:03.017Z,101298.91
2022-08-02T21:00:32.812Z,101296.47
2022-08-02T21:03:02.546Z,101294.72
2022-08-02T21:05:55.226Z,101293.84
2022-08-02T21:08:21.467Z,101295.78
2022-08-02T21:10:51.783Z,101289.44
2022-08-02T21:13:24.092Z,101295.00
2022-08-02T21:15:55.473Z,101301.53
2022-08-02T21:18:29.816Z,101297.22
2022-08-02T21:21:09.413Z,101292.81
2022-08-02T21:23:37.462Z,101298.47
2022-08-02T21:26:06.634Z,101291.44
2022-08-02T21:31:29.702Z,101290.91
2022-08-02T21:34:00.347Z,101294.72
2022-08-02T21:36:58.463Z,101292.19
2022-08-02T21:39:26.321Z,101289.72
2022-08-02T21:42:00.214Z,101298.09
2022-08-02T21:44:28.157Z,101295.56
2022-08-02T21:46:58.700Z,101294.84
2022-08-02T21:50:08.462Z,101305.09
2022-08-02T21:52:17.193Z,101300.75
2022-08-02T21:54:45.889Z,101298.28
2022-08-02T21:57:16.571Z,101297.66
2022-08-02T21:59:45.914Z,101303.22
2022-08-02T22:02:16.511Z,101301.72
2022-08-02T22:04:47.608Z,101303.78
2022-08-02T22:07:17.084Z,101306.75
2022-08-02T22:09:48.259Z,101295.22
2022-08-02T22:12:19.125Z,101300.88
2022-08-02T22:14:53.965Z,101307.56
2022-08-02T22:17:53.026Z,101303.25
2022-08-02T22:20:22.357Z,101306.34
2022-08-02T22:22:52.234Z,101308.34
2022-08-02T22:25:27.154Z,101315.75
2022-08-02T22:28:35.715Z,101306.94
2022-08-02T22:30:53.766Z,101306.47
2022-08-02T22:33:42.110Z,101304.84
2022-08-02T22:36:11.569Z,101323.31
2022-08-02T22:38:44.660Z,101311.88
2022-08-02T22:41:13.511Z,101307.53
2022-08-02T22:43:41.720Z,101307.72
2022-08-02T22:46:09.907Z,101316.94
2022-08-02T22:48:45.719Z,101309.91
2022-08-02T22:51:13.939Z,101316.41
2022-08-02T22:53:42.215Z,101316.50
2022-08-02T22:56:10.607Z,101318.41
2022-08-02T22:58:43.166Z,101243.94
2022-08-02T23:01:26.563Z,101308.81
2022-08-02T23:03:55.773Z,101316.19
2022-08-02T23:06:23.630Z,101314.50
2022-08-02T23:08:51.580Z,101309.22
2022-08-02T23:11:19.390Z,101318.63
2022-08-02T23:13:47.143Z,101307.88
2022-08-02T23:16:37.708Z,101316.16
2022-08-02T23:19:24.801Z,101308.19
2022-08-02T23:22:02.749Z,101311.00
2022-08-02T23:24:33.080Z,101317.56
2022-08-02T23:27:01.477Z,101314.16
2022-08-02T23:29:29.310Z,101318.78
2022-08-02T23:31:57.343Z,101306.28
2022-08-02T23:34:28.405Z,101309.28
2022-08-02T23:36:56.237Z,101309.53
2022-08-02T23:39:24.138Z,101312.69
2022-08-02T23:41:55.176Z,101313.72
2022-08-02T23:44:23.845Z,101325.63
2022-08-02T23:46:52.212Z,101323.94
2022-08-02T23:49:20.408Z,101320.44
2022-08-02T23:51:50.788Z,101324.28
2022-08-02T23:54:19.214Z,101329.56
2022-08-02T23:56:47.648Z,101323.88
2022-08-02T23:59:15.598Z,101320.97
